Time;durP1;ratioP1;P1;durP2;ratioP2;P2;SDS_P1;SDS_P2;PMS_P1;PMS_P2;Temp;Humidity;BMP_temperature;BMP_pressure;BME280_temperature;BME280_humidity;BME280_pressure;Samples;Min_cycle;Max_cycle;Signal;HPM_P1;HPM_P2
2023/02/13 00:02:26;;;;;;;25.00;16.38;;;;;;;;;;5050139;28;20424;-73
2023/02/13 00:04:53;;;;;;;26.63;16.20;;;;;;;;;;5050088;28;20057;-73
2023/02/13 00:07:20;;;;;;;26.60;16.33;;;;;;;;;;5051181;28;20144;-73
2023/02/13 00:09:47;;;;;;;34.50;18.98;;;;;;;;;;5050038;28;20128;-73
2023/02/13 00:12:14;;;;;;;26.77;16.00;;;;;;;;;;5050130;28;20493;-73
2023/02/13 00:14:40;;;;;;;30.17;17.17;;;;;;;;;;5049799;28;20055;-73
2023/02/13 00:17:07;;;;;;;30.10;16.35;;;;;;;;;;5050069;28;20048;-73
2023/02/13 00:19:34;;;;;;;29.60;16.77;;;;;;;;;;5050287;28;20052;-73
2023/02/13 00:22:01;;;;;;;26.70;15.68;;;;;;;;;;5050096;28;20520;-73
2023/02/13 00:24:27;;;;;;;27.63;16.52;;;;;;;;;;5050121;28;20064;-73
2023/02/13 00:26:54;;;;;;;29.10;16.75;;;;;;;;;;5049913;28;20095;-73
2023/02/13 00:29:21;;;;;;;27.58;16.23;;;;;;;;;;5033497;28;20049;-73
2023/02/13 00:31:47;;;;;;;25.45;16.08;;;;;;;;;;5052803;28;20045;-73
2023/02/13 00:34:14;;;;;;;27.45;16.42;;;;;;;;;;5052380;28;20087;-74
2023/02/13 00:36:41;;;;;;;26.20;15.98;;;;;;;;;;5037135;28;20056;-74
2023/02/13 00:39:10;;;;;;;29.13;16.83;;;;;;;;;;5049801;28;20049;-74
2023/02/13 00:41:37;;;;;;;28.73;16.42;;;;;;;;;;5049644;28;20052;-73
2023/02/13 00:44:04;;;;;;;27.83;17.73;;;;;;;;;;5050658;28;20409;-73
2023/02/13 00:46:31;;;;;;;25.27;15.02;;;;;;;;;;5053807;28;20059;-73
2023/02/13 00:48:58;;;;;;;25.88;16.45;;;;;;;;;;5053340;28;20124;-73
2023/02/13 00:51:24;;;;;;;25.75;15.13;;;;;;;;;;5053461;28;20061;-73
2023/02/13 00:53:51;;;;;;;27.13;15.88;;;;;;;;;;5053624;28;20079;-74
2023/02/13 00:56:18;;;;;;;25.40;15.55;;;;;;;;;;5053458;28;20053;-73
2023/02/13 00:58:45;;;;;;;27.27;16.83;;;;;;;;;;5053006;28;20049;-73
2023/02/13 01:01:11;;;;;;;25.90;15.10;;;;;;;;;;5053728;28;20178;-73
2023/02/13 01:03:38;;;;;;;29.42;17.48;;;;;;;;;;5053774;28;20408;-73
2023/02/13 01:06:06;;;;;;;30.30;16.77;;;;;;;;;;5053015;28;20053;-73
2023/02/13 01:08:32;;;;;;;27.60;16.55;;;;;;;;;;5052991;28;20051;-73
2023/02/13 01:10:59;;;;;;;26.20;14.57;;;;;;;;;;5036569;28;20060;-73
2023/02/13 01:13:26;;;;;;;28.45;15.38;;;;;;;;;;5052991;28;20065;-73
2023/02/13 01:15:53;;;;;;;24.45;15.52;;;;;;;;;;5052759;28;20501;-73
2023/02/13 01:18:19;;;;;;;29.33;16.30;;;;;;;;;;5052663;28;20052;-73
2023/02/13 01:20:56;;;;;;;24.45;15.60;;;;;;;;;;5053438;28;20068;-73
2023/02/13 01:23:23;;;;;;;23.50;16.17;;;;;;;;;;5036586;28;20053;-73
2023/02/13 01:25:50;;;;;;;28.95;15.85;;;;;;;;;;5052674;28;20110;-73
2023/02/13 01:28:17;;;;;;;27.50;15.18;;;;;;;;;;5052240;28;20504;-73
2023/02/13 01:30:44;;;;;;;26.88;16.75;;;;;;;;;;5052875;28;20489;-73
2023/02/13 01:33:10;;;;;;;28.00;17.15;;;;;;;;;;5036113;28;20056;-73
2023/02/13 01:35:40;;;;;;;26.15;16.70;;;;;;;;;;5052570;28;20055;-73
2023/02/13 01:38:07;;;;;;;29.33;18.00;;;;;;;;;;5052215;28;20051;-73
2023/02/13 01:40:34;;;;;;;31.95;19.38;;;;;;;;;;5052785;28;20067;-73
2023/02/13 01:43:00;;;;;;;37.45;21.33;;;;;;;;;;5035931;28;20409;-73
2023/02/13 01:45:29;;;;;;;34.55;19.80;;;;;;;;;;5052265;28;20057;-73
2023/02/13 01:48:07;;;;;;;38.13;21.15;;;;;;;;;;5052119;28;20056;-73
2023/02/13 01:50:44;;;;;;;40.15;21.83;;;;;;;;;;5052363;28;20056;-73
2023/02/13 01:53:27;;;;;;;37.88;19.92;;;;;;;;;;5036275;28;20053;-73
2023/02/13 01:55:57;;;;;;;36.72;19.15;;;;;;;;;;5051860;28;20063;-74
2023/02/13 01:58:27;;;;;;;36.25;20.63;;;;;;;;;;5036594;28;20507;-74
2023/02/13 02:00:53;;;;;;;31.15;18.92;;;;;;;;;;5052125;28;20057;-74
2023/02/13 02:03:31;;;;;;;35.10;19.73;;;;;;;;;;5035973;28;20053;-74
2023/02/13 02:05:58;;;;;;;33.67;18.52;;;;;;;;;;5052154;28;20060;-74
2023/02/13 02:08:25;;;;;;;31.13;19.23;;;;;;;;;;5051998;28;20409;-74
2023/02/13 02:10:55;;;;;;;40.22;20.35;;;;;;;;;;5052076;28;20053;-74
2023/02/13 02:13:22;;;;;;;34.22;19.52;;;;;;;;;;5051986;28;20084;-73
2023/02/13 02:15:49;;;;;;;37.13;19.08;;;;;;;;;;5051836;28;20057;-74
2023/02/13 02:18:24;;;;;;;34.88;19.55;;;;;;;;;;5051714;28;20456;-74
2023/02/13 02:21:14;;;;;;;34.50;19.30;;;;;;;;;;5051966;28;20080;-74
2023/02/13 02:23:47;;;;;;;33.75;19.67;;;;;;;;;;5035366;28;20061;-73
2023/02/13 02:26:35;;;;;;;29.23;16.38;;;;;;;;;;5035217;28;20052;-74
2023/02/13 02:29:29;;;;;;;32.95;18.23;;;;;;;;;;5051566;28;20398;-74
2023/02/13 02:32:29;;;;;;;34.28;18.13;;;;;;;;;;5051535;28;20056;-74
2023/02/13 02:35:21;;;;;;;37.85;20.08;;;;;;;;;;5051616;28;20436;-74
2023/02/13 02:38:05;;;;;;;36.97;19.75;;;;;;;;;;5051619;28;20065;-74
2023/02/13 02:41:06;;;;;;;36.22;19.98;;;;;;;;;;5051385;28;20056;-74
2023/02/13 02:43:32;;;;;;;34.97;18.63;;;;;;;;;;5051616;28;20063;-74
2023/02/13 02:46:26;;;;;;;33.20;17.95;;;;;;;;;;5051429;28;20052;-74
2023/02/13 02:51:49;;;;;;;31.85;17.30;;;;;;;;;;5051680;28;20063;-74
2023/02/13 02:57:08;;;;;;;29.73;16.63;;;;;;;;;;5052308;28;20072;-74
2023/02/13 03:08:01;;;;;;;26.08;16.02;;;;;;;;;;5050601;28;20052;-74
2023/02/13 03:13:27;;;;;;;26.58;16.35;;;;;;;;;;5051243;28;20426;-74
2023/02/13 03:24:48;;;;;;;26.52;15.95;;;;;;;;;;5051902;28;20064;-74
2023/02/13 03:30:29;;;;;;;29.35;15.93;;;;;;;;;;5051857;28;20099;-74
2023/02/13 03:33:05;;;;;;;27.92;16.73;;;;;;;;;;5050435;28;20088;-74
2023/02/13 03:38:33;;;;;;;29.73;17.02;;;;;;;;;;5051530;28;20060;-74
2023/02/13 03:41:17;;;;;;;30.85;16.58;;;;;;;;;;5050249;28;20463;-74
2023/02/13 03:44:08;;;;;;;31.58;17.45;;;;;;;;;;5051834;28;20139;-74
2023/02/13 03:46:40;;;;;;;26.70;15.63;;;;;;;;;;5051890;28;20053;-74
2023/02/13 03:52:50;;;;;;;29.45;16.77;;;;;;;;;;5051675;28;20091;-74
2023/02/13 04:00:57;;;;;;;35.40;18.65;;;;;;;;;;5051609;28;20060;-74
2023/02/13 04:03:48;;;;;;;33.53;16.48;;;;;;;;;;5050275;28;20051;-74
2023/02/13 04:06:18;;;;;;;32.03;16.38;;;;;;;;;;5050110;28;20056;-74
2023/02/13 04:08:45;;;;;;;29.45;17.13;;;;;;;;;;5050069;28;20049;-74
2023/02/13 04:11:11;;;;;;;28.58;16.85;;;;;;;;;;5033596;28;20049;-74
2023/02/13 04:13:42;;;;;;;31.60;17.23;;;;;;;;;;5050248;28;20064;-74
2023/02/13 04:16:12;;;;;;;30.33;17.80;;;;;;;;;;5033816;28;20071;-74
2023/02/13 04:18:39;;;;;;;32.38;16.05;;;;;;;;;;5035844;28;20053;-74
2023/02/13 04:21:06;;;;;;;31.95;16.95;;;;;;;;;;5037795;28;20432;-74
2023/02/13 04:23:33;;;;;;;27.50;16.05;;;;;;;;;;5058286;28;20053;-74
2023/02/13 04:26:05;;;;;;;32.97;16.77;;;;;;;;;;5054022;28;20057;-74
2023/02/13 04:28:32;;;;;;;36.03;18.40;;;;;;;;;;5053797;28;20059;-74
2023/02/13 04:30:58;;;;;;;29.50;17.50;;;;;;;;;;5055228;28;20052;-74
2023/02/13 04:33:26;;;;;;;31.02;16.92;;;;;;;;;;5054006;28;20071;-74
2023/02/13 04:35:52;;;;;;;37.00;17.20;;;;;;;;;;5056568;28;20106;-74
2023/02/13 04:38:19;;;;;;;28.95;16.70;;;;;;;;;;5021083;28;20059;-73
2023/02/13 04:40:46;;;;;;;32.80;16.63;;;;;;;;;;5038023;28;20053;-74
2023/02/13 04:43:12;;;;;;;33.33;16.20;;;;;;;;;;5053959;28;20088;-75
2023/02/13 04:45:39;;;;;;;30.77;16.25;;;;;;;;;;5020864;28;20053;-73
2023/02/13 04:48:06;;;;;;;35.10;16.90;;;;;;;;;;5053526;28;20509;-72
2023/02/13 04:50:33;;;;;;;37.05;18.45;;;;;;;;;;5053662;28;20044;-72
2023/02/13 04:52:59;;;;;;;32.00;16.58;;;;;;;;;;5053315;28;20608;-73
2023/02/13 04:55:27;;;;;;;30.65;17.08;;;;;;;;;;5053472;28;20048;-72
2023/02/13 04:57:54;;;;;;;33.92;18.35;;;;;;;;;;5054313;28;20060;-72
2023/02/13 05:00:22;;;;;;;35.90;17.33;;;;;;;;;;5053403;28;20063;-73
2023/02/13 05:02:49;;;;;;;33.38;17.60;;;;;;;;;;5036800;28;20057;-73
2023/02/13 05:05:16;;;;;;;33.65;17.17;;;;;;;;;;5053117;28;20136;-73
2023/02/13 05:07:43;;;;;;;34.72;17.48;;;;;;;;;;5053218;28;20053;-73
2023/02/13 05:10:10;;;;;;;34.65;18.27;;;;;;;;;;5053148;28;20049;-73
2023/02/13 05:12:37;;;;;;;32.35;17.98;;;;;;;;;;5036671;28;20055;-73
2023/02/13 05:15:05;;;;;;;36.38;18.08;;;;;;;;;;5053350;28;20417;-73
2023/02/13 05:17:31;;;;;;;36.08;18.08;;;;;;;;;;5053016;28;20397;-72
2023/02/13 05:19:58;;;;;;;38.30;17.60;;;;;;;;;;5053029;28;20056;-72
2023/02/13 05:25:10;;;;;;;31.02;16.42;;;;;;;;;;5053915;28;20140;-72
2023/02/13 05:27:37;;;;;;;33.40;17.38;;;;;;;;;;5052498;28;20476;-72
2023/02/13 05:30:04;;;;;;;37.75;18.50;;;;;;;;;;5052046;28;20051;-72
2023/02/13 05:32:31;;;;;;;31.55;17.58;;;;;;;;;;5036157;28;20057;-73
2023/02/13 05:34:58;;;;;;;36.10;18.08;;;;;;;;;;5036109;28;20099;-72
2023/02/13 05:37:25;;;;;;;36.20;17.98;;;;;;;;;;5052644;28;20053;-73
2023/02/13 05:39:51;;;;;;;38.38;18.30;;;;;;;;;;5036033;28;20048;-72
2023/02/13 05:42:18;;;;;;;34.97;17.42;;;;;;;;;;5052109;28;20057;-72
2023/02/13 05:44:44;;;;;;;33.83;17.83;;;;;;;;;;5052562;28;20049;-72
2023/02/13 05:47:11;;;;;;;36.72;17.80;;;;;;;;;;5052350;28;20501;-72
2023/02/13 05:49:38;;;;;;;36.15;18.27;;;;;;;;;;5035873;28;20421;-72
2023/02/13 05:52:05;;;;;;;37.33;18.83;;;;;;;;;;5052235;28;20057;-72
2023/02/13 05:54:31;;;;;;;37.83;19.02;;;;;;;;;;5052246;28;20060;-73
2023/02/13 05:56:58;;;;;;;44.42;20.73;;;;;;;;;;5052398;28;20056;-73
2023/02/13 05:59:25;;;;;;;59.10;24.85;;;;;;;;;;5051993;28;20049;-73
2023/02/13 06:01:52;;;;;;;67.50;27.33;;;;;;;;;;5052383;28;20060;-73
2023/02/13 06:04:19;;;;;;;50.13;23.52;;;;;;;;;;5052027;28;20053;-73
2023/02/13 06:06:46;;;;;;;41.83;20.98;;;;;;;;;;5035411;28;20053;-73
2023/02/13 06:09:12;;;;;;;36.72;18.02;;;;;;;;;;5051956;28;20154;-74
2023/02/13 06:11:39;;;;;;;34.97;17.98;;;;;;;;;;5052350;28;20061;-73
2023/02/13 06:14:06;;;;;;;36.38;16.75;;;;;;;;;;5051840;28;20079;-73
2023/02/13 06:16:33;;;;;;;32.22;17.67;;;;;;;;;;5035603;28;20045;-73
2023/02/13 06:19:00;;;;;;;30.83;17.35;;;;;;;;;;5051523;28;20059;-73
2023/02/13 06:21:26;;;;;;;34.70;16.15;;;;;;;;;;5051738;28;20468;-73
2023/02/13 06:23:53;;;;;;;29.65;16.30;;;;;;;;;;5051913;28;20060;-73
2023/02/13 06:26:20;;;;;;;30.83;16.20;;;;;;;;;;5051686;28;20045;-73
2023/02/13 06:28:47;;;;;;;31.92;17.23;;;;;;;;;;5051395;28;20501;-73
2023/02/13 06:31:13;;;;;;;30.08;16.67;;;;;;;;;;5051577;28;20493;-73
2023/02/13 06:33:40;;;;;;;33.10;15.85;;;;;;;;;;5051396;28;20055;-73
2023/02/13 06:36:07;;;;;;;31.65;16.52;;;;;;;;;;5051439;28;20057;-73
2023/02/13 06:38:33;;;;;;;35.25;17.88;;;;;;;;;;5034741;28;20132;-73
2023/02/13 06:41:00;;;;;;;34.22;17.60;;;;;;;;;;5052248;28;20056;-73
2023/02/13 06:43:27;;;;;;;36.00;17.58;;;;;;;;;;5051423;28;20328;-75
2023/02/13 06:45:54;;;;;;;42.97;20.10;;;;;;;;;;5051434;28;20067;-73
2023/02/13 06:48:21;;;;;;;44.38;20.08;;;;;;;;;;5051152;28;20057;-73
2023/02/13 06:50:50;;;;;;;43.33;21.17;;;;;;;;;;5051004;28;20795;-73
2023/02/13 06:53:23;;;;;;;37.28;19.15;;;;;;;;;;5051171;28;20053;-73
2023/02/13 06:55:52;;;;;;;40.70;20.40;;;;;;;;;;5051042;28;20053;-73
2023/02/13 06:58:19;;;;;;;43.03;19.88;;;;;;;;;;5050996;28;20540;-73
2023/02/13 07:00:46;;;;;;;45.45;20.63;;;;;;;;;;5018449;28;20049;-73
2023/02/13 07:03:13;;;;;;;42.03;20.17;;;;;;;;;;5051255;28;20110;-73
2023/02/13 07:05:41;;;;;;;39.35;19.75;;;;;;;;;;5050867;28;20053;-73
2023/02/13 07:08:08;;;;;;;41.97;19.73;;;;;;;;;;5034490;28;20059;-73
2023/02/13 07:10:39;;;;;;;44.10;20.17;;;;;;;;;;5050833;28;20564;-73
2023/02/13 07:13:06;;;;;;;40.65;20.10;;;;;;;;;;5034632;28;20064;-73
2023/02/13 07:15:34;;;;;;;40.92;19.42;;;;;;;;;;5050745;28;20059;-73
2023/02/13 07:18:01;;;;;;;40.60;19.73;;;;;;;;;;5050797;28;20406;-73
2023/02/13 07:20:27;;;;;;;46.58;21.70;;;;;;;;;;5017963;28;20088;-73
2023/02/13 07:23:02;;;;;;;41.33;20.08;;;;;;;;;;5050785;28;20049;-73
2023/02/13 07:25:29;;;;;;;39.08;19.85;;;;;;;;;;5051986;28;20061;-73
2023/02/13 07:28:05;;;;;;;38.63;20.30;;;;;;;;;;5017660;28;20063;-73
2023/02/13 07:30:33;;;;;;;41.47;21.02;;;;;;;;;;5051720;28;20095;-73
2023/02/13 07:33:03;;;;;;;44.30;21.65;;;;;;;;;;5050349;28;20061;-73
2023/02/13 07:35:31;;;;;;;43.15;19.83;;;;;;;;;;5050743;28;20135;-73
2023/02/13 07:37:59;;;;;;;40.58;19.88;;;;;;;;;;5017589;28;20052;-73
2023/02/13 07:40:26;;;;;;;41.10;20.27;;;;;;;;;;5034598;28;20060;-73
2023/02/13 07:42:53;;;;;;;38.63;19.88;;;;;;;;;;5049953;28;20068;-73
2023/02/13 07:45:19;;;;;;;37.78;19.83;;;;;;;;;;5050383;28;20508;-73
2023/02/13 07:47:46;;;;;;;42.38;21.35;;;;;;;;;;5033872;28;20049;-73
2023/02/13 07:50:13;;;;;;;40.13;21.35;;;;;;;;;;5050536;28;20056;-73
2023/02/13 07:52:39;;;;;;;43.25;21.60;;;;;;;;;;5049843;28;20053;-73
2023/02/13 07:55:07;;;;;;;43.55;20.35;;;;;;;;;;5050055;28;20055;-73
2023/02/13 07:57:34;;;;;;;40.47;20.10;;;;;;;;;;5033709;28;20135;-73
2023/02/13 08:00:01;;;;;;;35.78;18.90;;;;;;;;;;5050150;28;20049;-73
2023/02/13 08:02:28;;;;;;;43.25;19.60;;;;;;;;;;5050287;28;20426;-73
2023/02/13 08:04:54;;;;;;;36.13;18.42;;;;;;;;;;5050412;28;20064;-73
2023/02/13 08:07:21;;;;;;;41.40;19.15;;;;;;;;;;5050149;28;20057;-73
2023/02/13 08:12:34;;;;;;;38.97;18.65;;;;;;;;;;5051597;28;20159;-74
2023/02/13 08:15:00;;;;;;;39.30;20.20;;;;;;;;;;5050551;28;20100;-73
2023/02/13 08:17:27;;;;;;;37.75;18.15;;;;;;;;;;5050246;28;20425;-73
2023/02/13 08:19:54;;;;;;;40.05;19.60;;;;;;;;;;5034255;28;20053;-73
2023/02/13 08:22:21;;;;;;;39.92;20.58;;;;;;;;;;5050109;28;20053;-73
2023/02/13 08:24:47;;;;;;;40.30;18.90;;;;;;;;;;5050128;28;20057;-73
2023/02/13 08:27:15;;;;;;;39.85;19.35;;;;;;;;;;5049972;28;20057;-73
2023/02/13 08:29:41;;;;;;;40.38;19.17;;;;;;;;;;5033681;28;20425;-73
2023/02/13 08:32:08;;;;;;;38.20;19.48;;;;;;;;;;5050366;28;20053;-73
2023/02/13 08:34:35;;;;;;;40.25;19.58;;;;;;;;;;5050089;28;20474;-72
2023/02/13 08:37:02;;;;;;;35.90;19.08;;;;;;;;;;5049689;28;20532;-73
2023/02/13 08:39:29;;;;;;;33.40;18.93;;;;;;;;;;5033320;28;20059;-73
2023/02/13 08:41:55;;;;;;;36.92;19.15;;;;;;;;;;5049762;28;20488;-73
2023/02/13 08:44:22;;;;;;;32.08;17.10;;;;;;;;;;5033502;28;20053;-73
2023/02/13 08:46:49;;;;;;;34.85;17.80;;;;;;;;;;5033454;28;20053;-73
2023/02/13 08:49:16;;;;;;;35.58;18.40;;;;;;;;;;5033481;28;20048;-73
2023/02/13 08:51:42;;;;;;;30.92;18.08;;;;;;;;;;5050005;28;20065;-73
2023/02/13 08:54:09;;;;;;;34.25;18.63;;;;;;;;;;5050122;28;20064;-73
2023/02/13 08:56:36;;;;;;;33.53;18.63;;;;;;;;;;5049793;28;20057;-73
2023/02/13 08:59:02;;;;;;;28.83;17.48;;;;;;;;;;5049578;28;20057;-73
2023/02/13 09:01:29;;;;;;;34.97;18.48;;;;;;;;;;5049664;28;20053;-73
2023/02/13 09:03:56;;;;;;;34.10;17.70;;;;;;;;;;5049412;28;20065;-73
2023/02/13 09:06:25;;;;;;;32.22;17.92;;;;;;;;;;5052949;28;20055;-73
2023/02/13 09:08:52;;;;;;;30.65;18.73;;;;;;;;;;5053093;28;20053;-73
2023/02/13 09:11:22;;;;;;;28.77;16.00;;;;;;;;;;5036937;28;20045;-73
2023/02/13 09:13:51;;;;;;;28.55;17.17;;;;;;;;;;5053293;28;20053;-73
2023/02/13 09:16:18;;;;;;;26.65;15.15;;;;;;;;;;5036870;28;20149;-73
2023/02/13 09:18:49;;;;;;;26.02;15.93;;;;;;;;;;5052907;28;20056;-73
2023/02/13 09:21:17;;;;;;;24.35;14.35;;;;;;;;;;5036545;28;20087;-73
2023/02/13 09:23:44;;;;;;;26.23;16.20;;;;;;;;;;5052943;28;20053;-73
2023/02/13 09:26:12;;;;;;;25.30;16.33;;;;;;;;;;5036644;28;20052;-73
2023/02/13 09:28:39;;;;;;;27.30;16.08;;;;;;;;;;5036914;28;20059;-73
2023/02/13 09:31:06;;;;;;;25.02;15.70;;;;;;;;;;5052958;28;20103;-73
2023/02/13 09:33:34;;;;;;;24.85;15.93;;;;;;;;;;5052732;28;20052;-73
2023/02/13 09:36:08;;;;;;;25.65;15.70;;;;;;;;;;5052668;28;20571;-73
2023/02/13 09:38:35;;;;;;;24.58;14.02;;;;;;;;;;5052707;28;20057;-73
2023/02/13 09:41:24;;;;;;;23.02;14.18;;;;;;;;;;5052137;28;20102;-73
2023/02/13 09:43:50;;;;;;;22.77;13.07;;;;;;;;;;5038828;28;20056;-73
2023/02/13 09:46:24;;;;;;;24.67;14.45;;;;;;;;;;5052486;28;20099;-73
2023/02/13 09:48:52;;;;;;;;;;;;;;;;;;5052942;28;20057;-73
2023/02/13 09:51:22;;;;;;;22.48;14.90;;;;;;;;;;5052501;28;19929;-73
2023/02/13 09:54:03;;;;;;;25.05;14.15;;;;;;;;;;5052261;28;20525;-73
2023/02/13 09:56:32;;;;;;;20.02;13.98;;;;;;;;;;5053727;28;20053;-73
2023/02/13 09:59:02;;;;;;;24.50;14.13;;;;;;;;;;5052250;28;20079;-73
2023/02/13 10:01:48;;;;;;;23.50;13.60;;;;;;;;;;5019582;28;20076;-73
2023/02/13 10:04:33;;;;;;;19.40;13.05;;;;;;;;;;5052102;28;20509;-73
2023/02/13 10:07:18;;;;;;;20.50;12.88;;;;;;;;;;5035502;28;20525;-73
2023/02/13 10:09:54;;;;;;;18.73;11.95;;;;;;;;;;5052086;28;20513;-73
2023/02/13 10:12:26;;;;;;;20.60;12.50;;;;;;;;;;5052166;28;20063;-73
2023/02/13 10:15:16;;;;;;;17.15;11.98;;;;;;;;;;5051849;28;20056;-73
2023/02/13 10:17:49;;;;;;;20.20;11.30;;;;;;;;;;5051725;28;20063;-73
2023/02/13 10:20:34;;;;;;;16.02;10.95;;;;;;;;;;5051998;28;20053;-73
2023/02/13 10:23:36;;;;;;;18.13;11.07;;;;;;;;;;5051871;28;20072;-73
2023/02/13 10:26:05;;;;;;;16.95;10.88;;;;;;;;;;5051961;28;20049;-73
2023/02/13 10:28:41;;;;;;;15.98;10.65;;;;;;;;;;5051906;28;20060;-73
2023/02/13 10:31:13;;;;;;;18.02;11.70;;;;;;;;;;5051685;28;20135;-73
2023/02/13 10:33:50;;;;;;;14.47;10.57;;;;;;;;;;5051709;28;20057;-73
2023/02/13 10:36:28;;;;;;;18.63;10.98;;;;;;;;;;5051886;28;20111;-73
2023/02/13 10:39:11;;;;;;;18.23;10.57;;;;;;;;;;5035081;28;20117;-73
2023/02/13 10:41:44;;;;;;;;;;;;;;;;;;5050770;28;20053;-73
2023/02/13 10:44:26;;;;;;;16.30;11.43;;;;;;;;;;5046609;28;19925;-75
2023/02/13 10:47:09;;;;;;;12.45;8.60;;;;;;;;;;5034447;28;20424;-74
2023/02/13 10:49:57;;;;;;;14.75;9.85;;;;;;;;;;5051264;28;20059;-73
2023/02/13 10:52:49;;;;;;;16.88;9.95;;;;;;;;;;5033678;28;20443;-74
2023/02/13 10:55:31;;;;;;;12.48;9.43;;;;;;;;;;5049434;28;20524;-73
2023/02/13 10:58:12;;;;;;;12.63;9.45;;;;;;;;;;5049635;28;20132;-74
2023/02/13 11:00:50;;;;;;;15.32;9.48;;;;;;;;;;5017752;28;20517;-73
2023/02/13 11:03:24;;;;;;;12.43;8.68;;;;;;;;;;5050064;28;20053;-75
2023/02/13 11:05:52;;;;;;;14.75;8.93;;;;;;;;;;5049801;28;20059;-73
2023/02/13 11:08:29;;;;;;;14.45;9.68;;;;;;;;;;5050115;28;20057;-75
2023/02/13 11:10:56;;;;;;;16.70;10.02;;;;;;;;;;5014835;28;20050;-76
2023/02/13 11:13:24;;;;;;;13.88;8.90;;;;;;;;;;5032068;28;20419;-74
2023/02/13 11:16:03;;;;;;;13.15;8.95;;;;;;;;;;5047417;28;20048;-73
2023/02/13 11:18:36;;;;;;;12.23;9.02;;;;;;;;;;5046954;28;20061;-73
2023/02/13 11:21:07;;;;;;;11.98;8.90;;;;;;;;;;5030878;28;20049;-73
2023/02/13 11:23:39;;;;;;;11.27;8.52;;;;;;;;;;5046987;28;20539;-73
2023/02/13 11:26:13;;;;;;;13.43;9.18;;;;;;;;;;5046869;28;20056;-73
2023/02/13 11:28:52;;;;;;;11.80;8.82;;;;;;;;;;5013666;28;20122;-73
2023/02/13 11:31:33;;;;;;;12.70;9.05;;;;;;;;;;5046922;28;20512;-73
2023/02/13 11:34:26;;;;;;;12.23;9.02;;;;;;;;;;5030445;28;20061;-73
2023/02/13 11:37:09;;;;;;;12.07;8.77;;;;;;;;;;5046817;28;20061;-73
2023/02/13 11:39:35;;;;;;;13.15;9.38;;;;;;;;;;5030101;28;20076;-73
2023/02/13 11:42:02;;;;;;;14.52;9.30;;;;;;;;;;5046816;28;20056;-73
2023/02/13 11:44:30;;;;;;;12.15;8.43;;;;;;;;;;5046725;28;20057;-75
2023/02/13 11:46:59;;;;;;;14.07;10.35;;;;;;;;;;5030499;28;20049;-74
2023/02/13 11:49:34;;;;;;;11.00;9.20;;;;;;;;;;5047127;28;20052;-75
2023/02/13 11:52:23;;;;;;;11.55;8.57;;;;;;;;;;5047432;28;20060;-73
2023/02/13 11:54:58;;;;;;;13.75;9.90;;;;;;;;;;5029866;28;20056;-72
2023/02/13 11:57:36;;;;;;;13.40;9.70;;;;;;;;;;5046415;28;20052;-72
2023/02/13 12:00:36;;;;;;;13.73;8.98;;;;;;;;;;5046715;28;20056;-72
2023/02/13 12:03:28;;;;;;;11.75;8.73;;;;;;;;;;5047316;28;20126;-73
2023/02/13 12:06:02;;;;;;;13.13;8.40;;;;;;;;;;5048731;28;20485;-73
2023/02/13 12:08:29;;;;;;;13.90;9.55;;;;;;;;;;5044346;28;20314;-74
2023/02/13 12:10:57;;;;;;;10.77;7.65;;;;;;;;;;5038722;28;20548;-73
2023/02/13 12:13:33;;;;;;;11.55;9.18;;;;;;;;;;5038292;28;20056;-73
2023/02/13 12:16:03;;;;;;;11.90;8.57;;;;;;;;;;5017647;28;20048;-73
2023/02/13 12:18:38;;;;;;;11.02;8.63;;;;;;;;;;5035354;28;20068;-73
2023/02/13 12:21:41;;;;;;;11.57;8.57;;;;;;;;;;5030331;28;20099;-74
2023/02/13 12:24:30;;;;;;;13.40;8.60;;;;;;;;;;5053594;28;20054;-74
2023/02/13 12:27:07;;;;;;;14.05;9.43;;;;;;;;;;5037451;28;20307;-74
2023/02/13 12:30:09;;;;;;;12.52;8.60;;;;;;;;;;5028425;28;20132;-74
2023/02/13 12:32:59;;;;;;;11.68;8.65;;;;;;;;;;5051655;28;20053;-74
2023/02/13 12:35:29;;;;;;;12.05;8.43;;;;;;;;;;5050967;28;20057;-74
2023/02/13 12:38:31;;;;;;;11.27;8.20;;;;;;;;;;5035927;28;20052;-73
2023/02/13 12:41:31;;;;;;;10.77;7.38;;;;;;;;;;4999618;28;20046;-73
2023/02/13 12:44:03;;;;;;;11.05;7.28;;;;;;;;;;5026093;28;20045;-74
2023/02/13 12:46:40;;;;;;;9.68;7.50;;;;;;;;;;5037989;28;20053;-73
2023/02/13 12:49:45;;;;;;;8.23;7.07;;;;;;;;;;5038672;28;20049;-75
2023/02/13 12:52:33;;;;;;;6.47;5.40;;;;;;;;;;5027452;28;20052;-78
2023/02/13 12:55:25;;;;;;;6.90;5.82;;;;;;;;;;5056566;28;20063;-72
2023/02/13 12:58:17;;;;;;;7.40;4.93;;;;;;;;;;5053999;28;20052;-73
2023/02/13 13:01:15;;;;;;;7.45;4.55;;;;;;;;;;5040238;28;20307;-73
2023/02/13 13:03:50;;;;;;;7.35;4.53;;;;;;;;;;5055401;28;20668;-72
2023/02/13 13:06:25;;;;;;;6.13;4.38;;;;;;;;;;5052833;28;20061;-73
2023/02/13 13:08:57;;;;;;;6.18;4.60;;;;;;;;;;5038021;28;20146;-72
2023/02/13 13:11:46;;;;;;;5.00;4.47;;;;;;;;;;5038617;28;20045;-72
2023/02/13 13:14:22;;;;;;;5.05;4.55;;;;;;;;;;5040083;28;20049;-72
2023/02/13 13:17:24;;;;;;;6.30;4.95;;;;;;;;;;5052803;28;20505;-73
2023/02/13 13:20:21;;;;;;;5.40;4.70;;;;;;;;;;5003696;28;20130;-73
2023/02/13 13:22:52;;;;;;;5.15;4.63;;;;;;;;;;5037614;28;20454;-74
2023/02/13 13:25:28;;;;;;;5.72;5.10;;;;;;;;;;5035699;28;20057;-73
2023/02/13 13:28:01;;;;;;;5.95;4.65;;;;;;;;;;5036430;28;20505;-73
2023/02/13 13:30:28;;;;;;;;;;;;;;;;;;5037931;28;20053;-73
2023/02/13 13:32:59;;;;;;;4.40;4.00;;;;;;;;;;5052770;28;19925;-73
2023/02/13 13:35:26;;;;;;;6.30;4.57;;;;;;;;;;5037289;28;20057;-73
2023/02/13 13:38:05;;;;;;;5.18;4.68;;;;;;;;;;5034928;28;20058;-73
2023/02/13 13:40:52;;;;;;;6.53;4.38;;;;;;;;;;5022160;28;20053;-73
2023/02/13 13:43:31;;;;;;;5.63;4.70;;;;;;;;;;5040659;28;20118;-73
2023/02/13 13:46:15;;;;;;;6.00;4.57;;;;;;;;;;5055091;28;20053;-73
2023/02/13 13:48:47;;;;;;;;;;;;;;;;;;5036163;28;20065;-73
2023/02/13 13:51:16;;;;;;;5.03;3.97;;;;;;;;;;5054534;28;19924;-73
2023/02/13 13:54:04;;;;;;;5.30;4.47;;;;;;;;;;5036888;28;20063;-73
2023/02/13 13:56:53;;;;;;;6.82;4.47;;;;;;;;;;5053065;28;20054;-73
2023/02/13 13:59:54;;;;;;;5.70;5.10;;;;;;;;;;5052282;28;20060;-74
2023/02/13 14:02:21;;;;;;;5.40;4.60;;;;;;;;;;5035812;28;20414;-77
2023/02/13 14:05:19;;;;;;;5.88;5.25;;;;;;;;;;5038217;28;20059;-74
2023/02/13 14:07:49;;;;;;;6.20;4.90;;;;;;;;;;5025422;28;20075;-73
2023/02/13 14:10:25;;;;;;;6.07;4.50;;;;;;;;;;5041074;28;20457;-74
2023/02/13 14:12:54;;;;;;;5.57;5.00;;;;;;;;;;5052091;28;20053;-73
2023/02/13 14:15:33;;;;;;;4.80;4.30;;;;;;;;;;5051729;28;20053;-73
2023/02/13 14:18:03;;;;;;;6.53;4.65;;;;;;;;;;5038828;28;20119;-73
2023/02/13 14:20:51;;;;;;;5.47;4.50;;;;;;;;;;5050782;28;20569;-73
2023/02/13 14:23:34;;;;;;;5.65;4.90;;;;;;;;;;5038938;28;20088;-73
2023/02/13 14:26:16;;;;;;;;;;;;;;;;;;5040841;28;20603;-73
2023/02/13 14:29:20;;;;;;;8.52;4.30;;;;;;;;;;5055136;28;19925;-73
2023/02/13 14:32:01;;;;;;;6.00;5.22;;;;;;;;;;5034411;28;20145;-72
2023/02/13 14:34:30;;;;;;;6.00;4.90;;;;;;;;;;5038644;28;20052;-73
2023/02/13 14:37:09;;;;;;;5.18;4.63;;;;;;;;;;5035759;28;20056;-72
2023/02/13 14:39:36;;;;;;;6.20;4.55;;;;;;;;;;5049520;28;20102;-73
2023/02/13 14:42:20;;;;;;;6.90;4.63;;;;;;;;;;5035591;28;20069;-72
2023/02/13 14:44:48;;;;;;;;;;;;;;;;;;5011306;28;20056;-73
2023/02/13 14:47:49;;;;;;;6.03;4.65;;;;;;;;;;5037299;28;19921;-73
2023/02/13 14:50:50;;;;;;;6.38;4.80;;;;;;;;;;5009347;28;20068;-73
2023/02/13 14:53:23;;;;;;;8.23;5.15;;;;;;;;;;5021768;28;20508;-73
2023/02/13 14:55:55;;;;;;;6.38;5.07;;;;;;;;;;5035533;28;20056;-72
2023/02/13 14:58:28;;;;;;;5.75;4.68;;;;;;;;;;5017811;28;20065;-73
2023/02/13 15:01:10;;;;;;;4.97;4.15;;;;;;;;;;5039496;28;20505;-72
2023/02/13 15:03:43;;;;;;;6.35;4.68;;;;;;;;;;5033758;28;20111;-72
2023/02/13 15:06:33;;;;;;;6.38;4.43;;;;;;;;;;5016609;28;20555;-72
2023/02/13 15:09:02;;;;;;;7.00;5.72;;;;;;;;;;5032727;28;20073;-70
2023/02/13 15:11:36;;;;;;;5.20;4.70;;;;;;;;;;5033940;28;20049;-72
2023/02/13 15:14:32;;;;;;;5.85;4.82;;;;;;;;;;5050654;28;20622;-72
2023/02/13 15:17:05;;;;;;;6.65;5.45;;;;;;;;;;5035920;28;20049;-72
2023/02/13 15:19:34;;;;;;;6.55;5.15;;;;;;;;;;5049291;28;20564;-74
2023/02/13 15:22:03;;;;;;;6.75;5.40;;;;;;;;;;5011291;28;20052;-73
2023/02/13 15:24:46;;;;;;;5.53;4.93;;;;;;;;;;5043688;28;20080;-72
2023/02/13 15:27:20;;;;;;;;;;;;;;;;;;5052034;28;20140;-72
2023/02/13 15:29:58;;;;;;;6.57;5.47;;;;;;;;;;5052656;28;19933;-72
2023/02/13 15:32:28;;;;;;;9.77;6.82;;;;;;;;;;5034402;28;20049;-73
2023/02/13 15:34:54;;;;;;;6.93;5.68;;;;;;;;;;5032871;28;20080;-72
2023/02/13 15:37:23;;;;;;;7.45;5.78;;;;;;;;;;5034147;28;20498;-72
2023/02/13 15:39:50;;;;;;;7.43;5.70;;;;;;;;;;5041479;28;20053;-72
2023/02/13 15:42:17;;;;;;;10.18;7.30;;;;;;;;;;5036676;28;20055;-72
2023/02/13 15:44:47;;;;;;;8.32;6.15;;;;;;;;;;5027093;28;20053;-72
2023/02/13 15:47:25;;;;;;;7.35;6.05;;;;;;;;;;5052084;28;20052;-72